Hovedside
METAR-TAF:

METAR-TAF

Lufthavner :

Rygge, Norge

Moss lufthavn

breddegrad: 59-23N, lengdegrad: 010-47E, høyde over havet: 5 m

Gjeldene værobservasjon

Denne rapporten ble laget for 44 minutter siden, klokken 09:50 UTC
Vind 11 kt fra Sør-sørvest, skiftende mellom Sør og Vest-sørvest
Temperatur 16°C
Luftfuktighet 59%
Trykk 994 hPa
Sikt 10 km eller mer
Spredte skyer i en høyde av 3100 ft

METAR: ENRY 250950Z 20011KT 170V240 9999 SCT031 16/08 Q0994

Tid: 12:34 (10:34 UTC)


TAF: fraværende

Værobservasjoner og værvarsel for over 4000 flyplasser (METAR- og TAF-rapporter).

Tilgjengelige stasjoner er representert av de røde og gule prikkene på kartet.

Hold musepekeren over prikken for å se navnet på stasjonen.

Klikk så for å se værobservasjoner og -varsler.

For å forandre kartet kan du klikke på den grønne knappen med svart kryss for å zoome inn, på den grønne knappen med strek for å zoome ut, eller på de grønne pilene for å se tilstøtende kart.


METAR-TAF: